Time;durP1;ratioP1;P1;durP2;ratioP2;P2;SDS_P1;SDS_P2;PMS_P1;PMS_P2;Temp;Humidity;BMP_temperature;BMP_pressure;BME280_temperature;BME280_humidity;BME280_pressure;Samples;Min_cycle;Max_cycle;Signal;HPM_P1;HPM_P2
2022/03/29 00:00:28;;;;;;;12.70;7.50;;;;;;;8.24;54.51;99556.95;130719;1265;98914;-74
2022/03/29 00:03:41;;;;;;;13.70;7.80;;;;;;;8.20;54.53;99554.33;130771;1265;97975;-74
2022/03/29 00:06:44;;;;;;;12.40;6.90;;;;;;;8.15;54.59;99553.98;130620;1265;99135;-73
2022/03/29 00:09:46;;;;;;;12.80;7.80;;;;;;;8.10;54.39;99548.37;130581;1265;97984;-75
2022/03/29 00:12:53;;;;;;;11.80;7.90;;;;;;;8.03;55.27;99547.08;130591;1265;99193;-73
2022/03/29 00:15:55;;;;;;;17.20;7.40;;;;;;;7.96;55.31;99551.65;130477;1265;98045;-73
2022/03/29 00:19:16;;;;;;;12.60;7.30;;;;;;;7.87;55.63;99550.61;130527;1265;98051;-72
2022/03/29 00:22:19;;;;;;;11.90;7.60;;;;;;;7.80;55.37;99549.48;130459;1265;213388;-74
2022/03/29 00:25:22;;;;;;;14.50;8.60;;;;;;;7.75;55.63;99557.52;130585;1265;98770;-74
2022/03/29 00:28:24;;;;;;;11.30;7.70;;;;;;;7.66;55.91;99554.48;130581;1265;97975;-73
2022/03/29 00:31:27;;;;;;;14.30;8.00;;;;;;;7.60;56.14;99550.66;130665;1265;99187;-72
2022/03/29 00:34:30;;;;;;;13.40;8.40;;;;;;;7.54;56.30;99550.93;130631;1265;97971;-73
2022/03/29 00:37:33;;;;;;;13.50;7.90;;;;;;;7.48;55.70;99544.19;130560;1265;99055;-74
2022/03/29 00:40:36;;;;;;;11.70;7.60;;;;;;;7.47;55.39;99542.86;130601;1265;99136;-73
2022/03/29 00:43:40;;;;;;;14.00;7.90;;;;;;;7.44;56.09;99534.29;130663;1265;98493;-73
2022/03/29 00:46:42;;;;;;;12.10;7.40;;;;;;;7.40;56.08;99527.41;130720;1265;99178;-73
2022/03/29 00:49:45;;;;;;;12.30;7.50;;;;;;;7.36;55.51;99525.89;130694;1265;99117;-73
2022/03/29 00:52:48;;;;;;;13.80;8.50;;;;;;;7.35;55.63;99522.86;130563;1265;98124;-72
2022/03/29 00:55:54;;;;;;;13.00;8.00;;;;;;;7.37;55.84;99515.90;130614;1265;99136;-71
2022/03/29 00:58:57;;;;;;;14.90;8.80;;;;;;;7.38;56.72;99513.63;130613;1265;99192;-71
2022/03/29 01:02:00;;;;;;;13.70;9.00;;;;;;;7.37;56.04;99511.68;130656;1265;97948;-71
2022/03/29 01:05:04;;;;;;;13.80;8.80;;;;;;;7.37;57.01;99504.92;130675;1265;99146;-70
2022/03/29 01:08:08;;;;;;;15.40;9.50;;;;;;;7.32;57.06;99502.94;130546;1265;99047;-71
2022/03/29 01:11:12;;;;;;;13.40;8.90;;;;;;;7.28;56.60;99501.35;130531;1265;99197;-72
2022/03/29 01:14:14;;;;;;;13.00;9.00;;;;;;;7.24;56.80;99496.33;130582;1265;99141;-71
2022/03/29 01:20:41;;;;;;;13.00;8.50;;;;;;;7.05;57.07;99486.63;130651;1265;97974;-72
2022/03/29 01:23:45;;;;;;;14.30;9.00;;;;;;;7.01;56.83;99476.77;130686;1265;97989;-71
2022/03/29 01:26:49;;;;;;;15.10;9.20;;;;;;;7.00;56.69;99472.24;130666;1265;98106;-71
2022/03/29 01:29:57;;;;;;;16.50;9.90;;;;;;;6.95;57.72;99470.42;130562;1265;97985;-71
2022/03/29 01:33:01;;;;;;;15.00;9.40;;;;;;;6.88;57.64;99471.31;130663;1265;99136;-71
2022/03/29 01:36:05;;;;;;;16.30;9.30;;;;;;;6.83;57.31;99461.35;130270;1265;98058;-71
2022/03/29 01:39:08;;;;;;;17.40;9.90;;;;;;;6.84;56.92;99452.09;130555;1265;99177;-72
2022/03/29 01:42:10;;;;;;;15.10;9.20;;;;;;;6.90;57.11;99451.88;130533;1265;97982;-73
2022/03/29 01:45:13;;;;;;;13.40;9.10;;;;;;;6.93;57.03;99451.35;130526;1265;98978;-73
2022/03/29 01:48:16;;;;;;;16.60;9.40;;;;;;;6.93;56.89;99462.05;130536;1265;99159;-76
2022/03/29 01:51:18;;;;;;;17.40;9.60;;;;;;;6.95;56.88;99460.38;130640;1265;98028;-76
2022/03/29 01:54:21;;;;;;;17.10;10.00;;;;;;;6.98;56.91;99459.18;130661;1265;99121;-73
2022/03/29 01:57:27;;;;;;;18.50;9.90;;;;;;;6.95;56.83;99464.27;130700;1265;97973;-70
2022/03/29 02:00:34;;;;;;;17.10;9.40;;;;;;;6.93;57.14;99472.45;130761;1265;99046;-70
2022/03/29 02:03:37;;;;;;;16.70;9.80;;;;;;;6.86;57.28;99466.18;130440;1265;99159;-72
2022/03/29 02:06:39;;;;;;;17.00;10.60;;;;;;;6.81;57.28;99455.52;130475;1265;98678;-71
2022/03/29 02:09:42;;;;;;;16.80;10.40;;;;;;;6.83;57.25;99452.86;130515;1265;99139;-72
2022/03/29 02:12:46;;;;;;;16.20;10.30;;;;;;;6.84;57.25;99464.46;130672;1265;98688;-71
2022/03/29 02:15:49;;;;;;;18.00;10.40;;;;;;;6.82;57.08;99463.77;130739;1265;99248;-71
2022/03/29 02:18:52;;;;;;;17.30;10.10;;;;;;;6.80;57.47;99461.17;130546;1265;99171;-71
2022/03/29 02:21:54;;;;;;;17.50;10.70;;;;;;;6.75;57.59;99464.60;130470;1265;98861;-72
2022/03/29 02:24:57;;;;;;;19.00;11.20;;;;;;;6.70;57.63;99468.58;130493;1265;99156;-71
2022/03/29 02:28:00;;;;;;;19.00;10.70;;;;;;;6.66;57.97;99462.29;130639;1265;98068;-71
2022/03/29 02:31:02;;;;;;;14.90;9.00;;;;;;;6.60;58.31;99456.48;130463;1265;97963;-72
2022/03/29 02:34:05;;;;;;;17.90;9.70;;;;;;;6.54;58.23;99446.34;130469;1265;97982;-71
2022/03/29 02:37:08;;;;;;;19.90;8.80;;;;;;;6.53;58.27;99444.15;130435;1265;97975;-71
2022/03/29 02:40:13;;;;;;;17.30;10.60;;;;;;;6.53;60.04;99453.27;130325;1265;98099;-71
2022/03/29 02:43:16;;;;;;;16.80;10.40;;;;;;;6.51;59.57;99448.34;130684;1265;98632;-71
2022/03/29 02:46:19;;;;;;;15.50;9.80;;;;;;;6.56;59.23;99443.65;130610;1265;99146;-73
2022/03/29 02:49:22;;;;;;;16.70;9.80;;;;;;;6.62;59.27;99450.48;130501;1265;99162;-72
2022/03/29 02:52:24;;;;;;;16.70;10.30;;;;;;;6.66;59.09;99442.67;130621;1265;98057;-72
2022/03/29 02:55:29;;;;;;;16.60;10.30;;;;;;;6.69;59.46;99438.81;130659;1265;97969;-72
2022/03/29 02:58:32;;;;;;;17.40;10.60;;;;;;;6.64;59.43;99446.58;130589;1265;98039;-72
2022/03/29 03:01:35;;;;;;;16.20;10.90;;;;;;;6.62;59.71;99443.94;130642;1265;98708;-73
2022/03/29 03:04:37;;;;;;;16.40;10.70;;;;;;;6.54;59.66;99442.25;130714;1265;97995;-71
2022/03/29 03:07:41;;;;;;;21.10;10.80;;;;;;;6.47;60.22;99438.09;130692;1265;98742;-73
2022/03/29 03:10:44;;;;;;;17.90;10.60;;;;;;;6.43;59.60;99444.90;130566;1265;98789;-74
2022/03/29 03:13:47;;;;;;;18.00;11.00;;;;;;;6.41;59.83;99454.08;130703;1265;98033;-72
2022/03/29 03:16:51;;;;;;;19.50;11.70;;;;;;;6.38;59.96;99448.70;130729;1265;99172;-74
2022/03/29 03:19:53;;;;;;;17.90;9.60;;;;;;;6.38;60.20;99436.20;130790;1265;98738;-70
2022/03/29 03:22:56;;;;;;;15.70;9.50;;;;;;;6.38;60.05;99442.73;130427;1265;99172;-70
2022/03/29 03:25:59;;;;;;;19.70;11.00;;;;;;;6.36;61.27;99447.17;130525;1265;99166;-71
2022/03/29 03:29:01;;;;;;;16.10;10.30;;;;;;;6.32;61.26;99443.86;130513;1265;97943;-74
2022/03/29 03:32:08;;;;;;;34.60;19.20;;;;;;;6.36;60.84;99443.61;130458;1265;98054;-72
2022/03/29 03:35:12;;;;;;;430.00;150.60;;;;;;;6.47;60.58;99447.47;130625;1265;97973;-72
2022/03/29 03:38:15;;;;;;;47.80;20.20;;;;;;;6.57;60.65;99457.69;130584;1265;98013;-73
2022/03/29 03:41:18;;;;;;;29.10;16.70;;;;;;;6.56;61.96;99475.60;130626;1265;97955;-72
2022/03/29 03:44:22;;;;;;;18.30;11.70;;;;;;;6.43;61.60;99482.30;130750;1265;98045;-72
2022/03/29 03:47:27;;;;;;;18.30;11.30;;;;;;;6.34;62.89;99483.05;130550;1265;97974;-73
2022/03/29 03:50:30;;;;;;;24.80;14.00;;;;;;;6.26;62.03;99481.58;130703;1265;98035;-73
2022/03/29 03:53:33;;;;;;;18.40;10.40;;;;;;;6.22;62.74;99481.81;130543;1265;98064;-73
2022/03/29 03:56:36;;;;;;;17.10;10.30;;;;;;;6.15;62.83;99474.71;130485;1265;99047;-73
2022/03/29 03:59:39;;;;;;;19.20;11.10;;;;;;;6.19;61.80;99465.65;130512;1265;98078;-73
2022/03/29 04:02:42;;;;;;;18.60;10.90;;;;;;;6.23;63.86;99476.20;130469;1265;98918;-73
2022/03/29 04:05:45;;;;;;;17.20;10.50;;;;;;;6.20;63.11;99466.67;130501;1265;98061;-72
2022/03/29 04:08:48;;;;;;;20.20;12.90;;;;;;;6.18;63.79;99472.31;130574;1265;99169;-72
2022/03/29 04:11:51;;;;;;;19.50;11.10;;;;;;;6.12;63.59;99474.63;130626;1265;98045;-72
2022/03/29 04:14:54;;;;;;;18.50;13.10;;;;;;;6.10;63.45;99464.02;130770;1265;97977;-72
2022/03/29 04:17:57;;;;;;;17.60;10.90;;;;;;;6.10;63.36;99457.52;130724;1265;98936;-72
2022/03/29 04:21:01;;;;;;;19.00;10.80;;;;;;;6.08;62.92;99456.30;130792;1265;99024;-73
2022/03/29 04:24:05;;;;;;;18.90;11.30;;;;;;;6.07;64.29;99453.25;130584;1265;98489;-72
2022/03/29 04:27:08;;;;;;;16.30;9.80;;;;;;;5.98;63.84;99445.02;130493;1265;98126;-73
2022/03/29 04:30:12;;;;;;;17.60;11.00;;;;;;;5.96;64.47;99447.18;130694;1265;98093;-73
2022/03/29 04:33:15;;;;;;;17.50;12.10;;;;;;;5.95;65.51;99441.96;130686;1265;97961;-71
2022/03/29 04:36:18;;;;;;;28.70;14.20;;;;;;;6.02;63.74;99433.58;130665;1265;98715;-72
2022/03/29 04:39:20;;;;;;;21.40;13.80;;;;;;;6.08;63.63;99432.06;130536;1265;97948;-73
2022/03/29 04:42:23;;;;;;;19.80;11.50;;;;;;;6.17;63.16;99433.06;130438;1265;98023;-73
2022/03/29 04:45:26;;;;;;;19.10;11.40;;;;;;;6.23;63.14;99428.56;130590;1265;98444;-73
2022/03/29 04:48:29;;;;;;;16.90;11.10;;;;;;;6.29;63.65;99426.40;130786;1265;98042;-74
2022/03/29 04:51:34;;;;;;;19.30;11.40;;;;;;;6.31;63.19;99428.71;130676;1265;99166;-73
2022/03/29 04:54:37;;;;;;;20.20;11.80;;;;;;;6.32;64.63;99434.80;130740;1264;97958;-71
2022/03/29 04:57:41;;;;;;;18.80;11.90;;;;;;;6.27;63.53;99436.63;130617;1265;98796;-73
2022/03/29 05:00:44;;;;;;;23.60;12.00;;;;;;;6.33;63.22;99436.69;130592;1265;99147;-73
2022/03/29 05:03:47;;;;;;;19.00;10.90;;;;;;;6.42;64.00;99427.52;130502;1265;98477;-73
2022/03/29 05:06:49;;;;;;;16.70;11.00;;;;;;;6.46;63.62;99426.74;130450;1265;98769;-74
2022/03/29 05:09:52;;;;;;;319.70;161.10;;;;;;;6.53;63.58;99424.11;130620;1265;99145;-71
2022/03/29 05:12:56;;;;;;;83.20;42.60;;;;;;;6.66;62.97;99417.97;130546;1265;99185;-72
2022/03/29 05:15:59;;;;;;;104.90;51.90;;;;;;;6.78;62.85;99425.13;130674;1265;98756;-73
2022/03/29 05:19:01;;;;;;;42.50;25.90;;;;;;;6.84;62.88;99427.14;130544;1265;97981;-73
2022/03/29 05:22:05;;;;;;;24.50;15.00;;;;;;;6.85;62.64;99429.84;130674;1265;97978;-73
2022/03/29 05:25:08;;;;;;;21.80;12.90;;;;;;;6.83;63.33;99433.20;130745;1264;98839;-71
2022/03/29 05:28:11;;;;;;;22.00;13.80;;;;;;;6.66;64.12;99440.90;130667;1265;97966;-74
2022/03/29 05:31:14;;;;;;;21.50;14.80;;;;;;;6.50;64.06;99440.98;130491;1265;98629;-75
2022/03/29 05:34:16;;;;;;;19.30;12.60;;;;;;;6.44;63.98;99444.21;130481;1264;98050;-74
2022/03/29 05:37:19;;;;;;;20.00;11.60;;;;;;;6.45;64.32;99453.34;130493;1265;97946;-74
2022/03/29 05:40:22;;;;;;;18.30;10.70;;;;;;;6.43;64.66;99456.55;130466;1265;99024;-73
2022/03/29 05:43:25;;;;;;;25.70;13.90;;;;;;;6.42;64.85;99457.84;130570;1265;98038;-73
2022/03/29 05:49:49;;;;;;;23.10;13.30;;;;;;;6.45;65.96;99460.03;130503;1265;97952;-74
2022/03/29 05:52:52;;;;;;;22.60;14.00;;;;;;;6.56;65.54;99461.02;130483;1265;99236;-73
2022/03/29 05:55:54;;;;;;;22.60;12.60;;;;;;;6.70;65.59;99463.67;130573;1265;97954;-74
2022/03/29 05:58:57;;;;;;;22.70;13.60;;;;;;;6.79;65.55;99472.39;130548;1265;98841;-74
2022/03/29 06:02:04;;;;;;;64.00;31.50;;;;;;;6.90;65.28;99470.40;130710;1265;98945;-73
2022/03/29 06:05:09;;;;;;;26.50;14.80;;;;;;;7.03;64.69;99472.14;130561;1265;98802;-72
2022/03/29 06:08:11;;;;;;;20.30;11.80;;;;;;;7.10;65.78;99474.52;130480;1265;98000;-73
2022/03/29 06:11:14;;;;;;;21.60;12.30;;;;;;;7.03;65.79;99467.05;130512;1265;97957;-73
2022/03/29 06:14:18;;;;;;;21.00;13.40;;;;;;;7.02;65.55;99465.83;130548;1265;98825;-73
2022/03/29 06:17:20;;;;;;;20.70;12.80;;;;;;;7.14;65.46;99476.79;130472;1265;98779;-74
2022/03/29 06:20:23;;;;;;;21.90;13.20;;;;;;;7.21;64.95;99472.73;130484;1265;99142;-74
2022/03/29 06:23:26;;;;;;;18.50;12.30;;;;;;;7.19;66.17;99479.27;130623;1264;99123;-74
2022/03/29 06:26:30;;;;;;;20.40;12.90;;;;;;;7.12;65.65;99478.20;130589;1265;97986;-74
2022/03/29 06:29:34;;;;;;;34.90;21.50;;;;;;;7.04;67.01;99481.04;130596;1265;97968;-74
2022/03/29 06:32:46;;;;;;;18.50;13.30;;;;;;;6.91;67.11;99477.77;130480;1265;98379;-73
2022/03/29 06:35:49;;;;;;;57.20;33.20;;;;;;;6.82;67.82;99479.55;130513;1265;97965;-73
2022/03/29 06:38:53;;;;;;;25.60;16.70;;;;;;;6.81;68.49;99476.77;130508;1265;97982;-73
2022/03/29 06:41:56;;;;;;;26.10;16.40;;;;;;;6.82;67.43;99478.44;130574;1265;99024;-74
2022/03/29 06:44:58;;;;;;;26.80;17.10;;;;;;;6.83;67.44;99479.01;130563;1265;98554;-74
2022/03/29 06:48:01;;;;;;;19.60;12.60;;;;;;;6.92;67.19;99478.52;130457;1265;98158;-74
2022/03/29 06:51:04;;;;;;;20.60;13.50;;;;;;;6.89;67.75;99488.02;130442;1265;99117;-73
2022/03/29 06:54:07;;;;;;;22.50;15.30;;;;;;;6.77;68.71;99495.73;130614;1265;97999;-72
2022/03/29 06:57:10;;;;;;;23.80;16.40;;;;;;;6.61;69.59;99495.77;130479;1265;99140;-73
2022/03/29 07:00:15;;;;;;;30.00;19.40;;;;;;;6.49;70.23;99498.21;130687;1265;99170;-73
2022/03/29 07:03:20;;;;;;;26.60;16.30;;;;;;;6.44;69.73;99495.95;130646;1265;97946;-73
2022/03/29 07:06:23;;;;;;;23.00;14.70;;;;;;;6.34;69.65;99496.44;130491;1265;98998;-72
2022/03/29 07:12:49;;;;;;;32.60;21.20;;;;;;;6.44;68.69;99492.61;130510;1265;99181;-73
2022/03/29 07:15:52;;;;;;;25.90;16.10;;;;;;;6.56;68.63;99497.53;130614;1265;99156;-74
2022/03/29 07:18:55;;;;;;;25.60;17.10;;;;;;;6.58;68.92;99498.77;130486;1264;98741;-75
2022/03/29 07:21:58;;;;;;;25.30;17.30;;;;;;;6.61;69.11;99498.49;130523;1265;99188;-74
2022/03/29 07:25:00;;;;;;;28.10;18.20;;;;;;;6.60;69.53;99502.45;130500;1264;98941;-73
2022/03/29 07:28:04;;;;;;;27.10;17.40;;;;;;;6.69;69.16;99499.69;130470;1265;98514;-74
2022/03/29 07:31:07;;;;;;;28.20;18.30;;;;;;;6.83;69.17;99496.32;130594;1265;97982;-73
2022/03/29 07:34:09;;;;;;;27.60;17.50;;;;;;;6.81;69.22;99493.73;130623;1265;98935;-73
2022/03/29 07:37:12;;;;;;;27.40;17.70;;;;;;;6.73;69.18;99496.83;130639;1265;98040;-74
2022/03/29 07:40:17;;;;;;;25.10;16.20;;;;;;;6.69;68.91;99498.42;130477;1265;99139;-74
2022/03/29 07:43:19;;;;;;;24.70;16.20;;;;;;;6.60;69.43;99499.47;130527;1264;98741;-74
2022/03/29 07:46:22;;;;;;;35.40;18.30;;;;;;;6.51;69.54;99495.55;130651;1265;98019;-74
2022/03/29 07:49:27;;;;;;;23.30;15.90;;;;;;;6.49;69.11;99503.98;130571;1265;99737;-73
2022/03/29 07:52:29;;;;;;;26.60;16.30;;;;;;;6.52;69.59;99504.48;130486;1265;98306;-74
2022/03/29 07:55:34;;;;;;;27.60;16.90;;;;;;;6.49;70.07;99501.22;130675;1265;97966;-74
2022/03/29 07:58:37;;;;;;;28.10;17.20;;;;;;;6.43;70.51;99504.45;130656;1265;99161;-73
2022/03/29 08:01:40;;;;;;;25.40;16.70;;;;;;;6.44;69.91;99505.79;130566;1265;97974;-74
2022/03/29 08:04:42;;;;;;;27.20;16.10;;;;;;;6.48;69.92;99503.75;130492;1265;99137;-74
2022/03/29 08:07:46;;;;;;;28.40;17.10;;;;;;;6.54;69.55;99498.57;130465;1265;97966;-72
2022/03/29 08:10:49;;;;;;;24.10;16.00;;;;;;;6.69;69.40;99504.36;130534;1265;97986;-74
2022/03/29 08:13:53;;;;;;;25.40;16.20;;;;;;;6.87;68.44;99498.09;130578;1265;97946;-73
2022/03/29 08:16:56;;;;;;;27.70;19.40;;;;;;;7.14;68.68;99495.33;130479;1265;99139;-71
2022/03/29 08:19:59;;;;;;;26.10;17.00;;;;;;;7.37;68.38;99495.36;130538;1264;98025;-74
2022/03/29 08:23:02;;;;;;;25.50;15.60;;;;;;;7.46;68.18;99496.61;130501;1265;99232;-73
2022/03/29 08:26:04;;;;;;;24.20;17.20;;;;;;;7.45;67.94;99490.48;130498;1265;98060;-75
2022/03/29 08:29:08;;;;;;;25.70;17.30;;;;;;;7.46;67.93;99494.83;130606;1265;99143;-74
2022/03/29 08:32:11;;;;;;;28.90;17.60;;;;;;;7.45;67.72;99498.60;130558;1265;99146;-73
2022/03/29 08:35:14;;;;;;;26.20;16.20;;;;;;;7.42;67.63;99504.41;130538;1265;97953;-73
2022/03/29 08:38:16;;;;;;;28.00;17.50;;;;;;;7.58;67.21;99499.83;130490;1265;97969;-73
2022/03/29 08:41:21;;;;;;;26.30;17.80;;;;;;;7.80;67.06;99500.02;130567;1265;98004;-73
2022/03/29 08:44:26;;;;;;;25.40;17.30;;;;;;;7.96;66.71;99499.11;130570;1265;98371;-73
2022/03/29 08:47:28;;;;;;;29.40;18.10;;;;;;;8.03;66.62;99495.21;130496;1265;98627;-73
2022/03/29 08:50:36;;;;;;;35.10;19.90;;;;;;;8.27;66.52;99489.38;130466;1265;97974;-73
2022/03/29 08:53:39;;;;;;;28.70;17.10;;;;;;;8.55;65.92;99496.66;130587;1265;97972;-73
2022/03/29 08:56:42;;;;;;;27.50;17.80;;;;;;;8.61;65.69;99493.69;130702;1265;98083;-73
2022/03/29 08:59:44;;;;;;;35.00;20.20;;;;;;;8.77;65.71;99490.53;130712;1265;97958;-73
2022/03/29 09:02:47;;;;;;;34.10;20.00;;;;;;;9.01;65.70;99481.96;130617;1265;98108;-73
2022/03/29 09:06:06;;;;;;;27.60;17.10;;;;;;;9.27;65.22;99481.63;130445;1265;97931;-73
2022/03/29 09:09:21;;;;;;;24.80;16.80;;;;;;;9.31;63.43;99480.90;130508;1265;98070;-73
2022/03/29 09:12:24;;;;;;;24.30;16.60;;;;;;;9.06;63.57;99475.89;130452;1265;98091;-74
2022/03/29 09:15:36;;;;;;;26.10;16.80;;;;;;;8.97;64.31;99469.55;130516;1265;98029;-74
2022/03/29 09:18:52;;;;;;;;;;;;;;;9.18;64.17;99469.64;130629;1265;98055;-74
2022/03/29 09:21:59;;;;;;;22.10;15.50;;;;;;;9.42;64.29;99469.80;130440;1265;98023;-73
2022/03/29 09:25:02;;;;;;;23.30;15.40;;;;;;;9.49;62.75;99469.70;130469;1265;98636;-74
2022/03/29 09:28:10;;;;;;;33.70;20.00;;;;;;;9.59;63.83;99459.59;130606;1265;98060;-73
2022/03/29 09:31:22;;;;;;;26.00;17.50;;;;;;;9.91;63.29;99466.28;130506;1264;122098;-73
2022/03/29 09:34:24;;;;;;;;;;;;;;;9.96;62.75;99456.13;130519;1265;99135;-74
2022/03/29 09:37:34;;;;;;;123.90;47.10;;;;;;;10.02;62.88;99454.52;130510;1265;98058;-74
2022/03/29 09:40:39;;;;;;;28.10;16.90;;;;;;;10.09;62.04;99449.81;130657;1265;97988;-74
2022/03/29 09:44:06;;;;;;;26.60;16.50;;;;;;;10.01;61.23;99450.97;130302;1265;98107;-74
2022/03/29 09:47:11;;;;;;;61.10;27.70;;;;;;;9.91;61.72;99445.26;130467;1265;97984;-74
2022/03/29 09:50:14;;;;;;;70.40;32.40;;;;;;;10.10;62.46;99442.26;130698;1265;99150;-74
2022/03/29 09:53:34;;;;;;;50.10;24.10;;;;;;;10.40;62.16;99443.40;130558;1265;97960;-74
2022/03/29 09:56:37;;;;;;;101.80;39.20;;;;;;;10.54;61.54;99445.45;130519;1264;122098;-74
2022/03/29 09:59:49;;;;;;;47.30;23.20;;;;;;;10.68;61.75;99439.56;130538;1265;98860;-74
2022/03/29 10:02:52;;;;;;;63.60;28.90;;;;;;;10.90;61.73;99436.79;130688;1265;99514;-74
2022/03/29 10:06:02;;;;;;;40.40;22.70;;;;;;;11.00;61.49;99432.16;130557;1265;98444;-73
2022/03/29 10:12:26;;;;;;;58.30;28.40;;;;;;;10.67;59.49;99434.00;130489;1265;97940;-73
2022/03/29 10:15:29;;;;;;;25.20;17.70;;;;;;;10.61;60.00;99436.98;130493;1265;99128;-73
2022/03/29 10:18:32;;;;;;;24.00;16.00;;;;;;;10.57;60.16;99436.13;130431;1264;97993;-74
2022/03/29 10:21:36;;;;;;;32.90;19.90;;;;;;;10.44;59.45;99438.43;130505;1265;98048;-73
2022/03/29 10:24:38;;;;;;;26.90;17.10;;;;;;;10.17;59.60;99434.21;130465;1264;97968;-73
2022/03/29 10:27:42;;;;;;;24.20;16.40;;;;;;;10.04;59.81;99434.20;130560;1265;98747;-73
2022/03/29 10:30:45;;;;;;;23.90;15.70;;;;;;;10.07;59.96;99432.38;130671;1265;97927;-72
2022/03/29 10:34:08;;;;;;;40.90;23.20;;;;;;;10.13;60.03;99428.65;130696;1264;98712;-73
2022/03/29 10:37:14;;;;;;;23.00;14.90;;;;;;;10.30;60.10;99427.36;130564;1265;99224;-72
2022/03/29 10:40:35;;;;;;;20.20;13.90;;;;;;;10.26;59.02;99427.96;130509;1265;99076;-73
2022/03/29 10:43:52;;;;;;;20.40;14.80;;;;;;;10.08;59.24;99425.60;130512;1265;97990;-72
2022/03/29 10:46:55;;;;;;;20.40;13.80;;;;;;;10.01;59.74;99423.09;130565;1265;98613;-73
2022/03/29 10:49:59;;;;;;;19.50;14.60;;;;;;;10.13;59.95;99423.63;130539;1265;122186;-74
2022/03/29 10:53:25;;;;;;;22.10;14.80;;;;;;;10.27;59.39;99426.05;130506;1265;98085;-74
2022/03/29 10:56:29;;;;;;;22.30;14.50;;;;;;;10.16;58.72;99420.98;130481;1265;98071;-74
2022/03/29 11:04:28;;;;;;;21.60;14.30;;;;;;;9.88;59.37;99406.69;130412;1268;98617;-74
2022/03/29 11:07:32;;;;;;;21.80;14.80;;;;;;;9.88;58.94;99397.31;130445;1265;98750;-74
2022/03/29 11:10:41;;;;;;;21.60;14.70;;;;;;;9.74;58.98;99396.45;130601;1265;99060;-74
2022/03/29 11:13:44;;;;;;;22.40;15.60;;;;;;;9.52;58.51;99396.44;130447;1267;97976;-73
2022/03/29 11:16:47;;;;;;;24.20;15.60;;;;;;;9.42;59.19;99398.21;130494;1265;99142;-74
2022/03/29 11:19:50;;;;;;;24.30;14.90;;;;;;;9.41;59.21;99391.92;130458;1265;98043;-73
2022/03/29 11:22:55;;;;;;;19.50;13.30;;;;;;;9.45;59.10;99391.31;130546;1265;98040;-74
2022/03/29 11:26:03;;;;;;;22.40;14.50;;;;;;;9.51;58.73;99394.98;130506;1265;98037;-74
2022/03/29 11:29:08;;;;;;;24.60;14.50;;;;;;;9.47;58.66;99391.95;130447;1265;98067;-74
2022/03/29 11:32:17;;;;;;;20.30;13.70;;;;;;;9.40;59.01;99389.60;130551;1265;97981;-73
2022/03/29 11:35:20;;;;;;;23.10;14.70;;;;;;;9.41;58.89;99387.31;130477;1265;99188;-73
2022/03/29 11:38:23;;;;;;;23.60;15.80;;;;;;;9.29;58.58;99384.88;130478;1264;98639;-74
2022/03/29 11:41:28;;;;;;;22.90;15.40;;;;;;;9.15;58.76;99383.19;130467;1265;97933;-73
2022/03/29 11:44:31;;;;;;;21.70;14.30;;;;;;;9.15;58.91;99377.36;130667;1265;97987;-73
2022/03/29 11:47:33;;;;;;;28.30;15.20;;;;;;;9.26;58.74;99369.05;130625;1265;97988;-73
2022/03/29 11:50:39;;;;;;;20.90;14.40;;;;;;;9.47;58.91;99358.46;130625;1265;99141;-72
2022/03/29 11:53:42;;;;;;;22.00;15.20;;;;;;;9.76;57.76;99355.66;130659;1265;98850;-73
2022/03/29 11:56:44;;;;;;;24.10;14.20;;;;;;;9.81;58.14;99351.72;130546;1265;99034;-72
2022/03/29 11:59:48;;;;;;;24.10;14.60;;;;;;;9.81;57.78;99354.52;130587;1265;98690;-72
2022/03/29 12:02:51;;;;;;;23.30;14.60;;;;;;;9.77;57.38;99352.62;130513;1265;98776;-74
2022/03/29 12:06:06;;;;;;;21.50;13.80;;;;;;;9.71;57.27;99349.64;130486;1265;99248;-74
2022/03/29 12:09:09;;;;;;;18.60;13.60;;;;;;;9.71;57.89;99343.61;130583;1265;98123;-74
2022/03/29 12:12:12;;;;;;;21.50;13.00;;;;;;;9.95;57.81;99349.27;130320;1265;98023;-74
2022/03/29 12:15:14;;;;;;;20.60;13.20;;;;;;;10.17;57.60;99343.73;130468;1265;99175;-73
2022/03/29 12:18:41;;;;;;;19.70;13.80;;;;;;;10.38;57.65;99341.07;130542;1265;97994;-74
2022/03/29 12:21:45;;;;;;;20.90;13.80;;;;;;;10.59;56.61;99343.27;130451;1265;99184;-73
2022/03/29 12:24:54;;;;;;;23.30;13.80;;;;;;;10.77;56.61;99335.82;130371;1265;247921;-74
2022/03/29 12:27:58;;;;;;;23.00;13.90;;;;;;;10.93;57.01;99329.43;130362;1265;99084;-73
2022/03/29 12:31:01;;;;;;;19.70;13.80;;;;;;;11.07;56.41;99326.05;130270;1267;99037;-74
2022/03/29 12:34:04;;;;;;;20.50;14.10;;;;;;;11.07;56.21;99319.62;130485;1265;97969;-74
2022/03/29 12:37:14;;;;;;;20.90;13.80;;;;;;;11.20;56.35;99314.88;130483;1265;97991;-73
2022/03/29 12:40:16;;;;;;;19.90;13.90;;;;;;;11.38;56.26;99310.30;130491;1265;98000;-73
2022/03/29 12:43:27;;;;;;;20.50;13.40;;;;;;;11.44;55.87;99306.81;130436;1265;98573;-73
2022/03/29 12:46:31;;;;;;;21.50;14.20;;;;;;;11.33;54.98;99310.22;130474;1265;99035;-73
2022/03/29 12:49:35;;;;;;;17.90;13.00;;;;;;;11.09;54.27;99307.66;130523;1265;98642;-73
2022/03/29 12:52:42;;;;;;;20.30;13.90;;;;;;;10.86;54.24;99308.17;130521;1265;98341;-73
2022/03/29 12:55:55;;;;;;;18.50;13.00;;;;;;;10.66;54.43;99311.58;130693;1264;98087;-73
2022/03/29 12:58:58;;;;;;;20.70;14.60;;;;;;;10.55;54.68;99314.21;130613;1265;99148;-73
2022/03/29 13:02:12;;;;;;;23.00;15.40;;;;;;;10.63;54.46;99312.10;130672;1265;97965;-77
2022/03/29 13:05:18;;;;;;;24.90;15.90;;;;;;;10.61;53.65;99309.48;130565;1265;97995;-74
2022/03/29 13:08:22;;;;;;;24.90;15.30;;;;;;;10.47;53.89;99309.08;130473;1265;97933;-75
2022/03/29 13:11:25;;;;;;;22.10;15.10;;;;;;;10.43;54.95;99306.39;130521;1265;97967;-75
2022/03/29 13:14:36;;;;;;;20.20;13.40;;;;;;;10.54;55.25;99298.35;130499;1265;97959;-75
2022/03/29 13:17:39;;;;;;;21.80;15.50;;;;;;;10.63;54.00;99303.44;130523;1265;97964;-74
2022/03/29 13:20:41;;;;;;;22.70;15.10;;;;;;;10.64;53.59;99298.41;130456;1265;97966;-76
2022/03/29 13:23:46;;;;;;;25.50;15.70;;;;;;;10.63;54.19;99298.42;130683;1265;98000;-76
2022/03/29 13:26:52;;;;;;;21.20;14.30;;;;;;;10.64;53.86;99300.82;130579;1265;98728;-73
2022/03/29 13:29:54;;;;;;;20.90;14.60;;;;;;;10.67;54.02;99292.77;130562;1265;99162;-75
2022/03/29 13:32:57;;;;;;;27.50;17.90;;;;;;;10.73;54.55;99288.35;130704;1265;97976;-75
2022/03/29 13:36:06;;;;;;;25.40;15.10;;;;;;;10.79;54.10;99284.77;130896;1265;98503;-74
2022/03/29 13:39:10;;;;;;;21.90;15.10;;;;;;;10.78;53.87;99277.66;130756;1268;98753;-74
2022/03/29 13:42:12;;;;;;;36.80;25.00;;;;;;;10.65;53.44;99276.34;130721;1266;99162;-78
2022/03/29 13:45:16;;;;;;;23.80;16.50;;;;;;;10.64;53.46;99276.08;130735;1265;99104;-76
2022/03/29 13:48:18;;;;;;;28.50;20.00;;;;;;;10.52;53.41;99274.39;130780;1265;98047;-74
2022/03/29 13:51:21;;;;;;;29.90;19.10;;;;;;;10.46;54.45;99271.16;130569;1265;99144;-73
2022/03/29 13:54:25;;;;;;;29.00;17.90;;;;;;;10.67;54.24;99267.38;130533;1265;99150;-75
2022/03/29 13:57:27;;;;;;;22.80;16.40;;;;;;;10.88;54.39;99267.42;130509;1265;99184;-73
2022/03/29 14:00:31;;;;;;;27.70;18.60;;;;;;;10.92;53.95;99269.30;130534;1265;99178;-74
2022/03/29 14:03:34;;;;;;;26.40;19.00;;;;;;;10.78;53.61;99271.61;130498;1265;97994;-75
2022/03/29 14:06:36;;;;;;;23.90;16.00;;;;;;;10.61;53.87;99267.85;130566;1265;98637;-74
2022/03/29 14:09:39;;;;;;;28.70;20.80;;;;;;;10.61;53.62;99267.33;130618;1265;98736;-75
2022/03/29 14:12:41;;;;;;;25.00;16.50;;;;;;;10.61;53.87;99263.23;130634;1265;99147;-75
2022/03/29 14:15:47;;;;;;;24.30;16.30;;;;;;;10.55;53.99;99262.70;130555;1265;97980;-79
2022/03/29 14:18:53;;;;;;;26.60;17.30;;;;;;;10.44;53.92;99261.23;130601;1265;99175;-76
2022/03/29 14:21:56;;;;;;;27.20;16.30;;;;;;;10.27;53.80;99255.74;130581;1264;98509;-74
2022/03/29 14:24:59;;;;;;;23.60;16.50;;;;;;;10.22;54.18;99257.47;130632;1265;98072;-75